createdAt,value
2022-10-23T00:29:16.724Z,100451.34
2022-10-23T00:51:00.049Z,100452.55
2022-10-23T01:12:50.423Z,100447.85
2022-10-23T01:34:43.639Z,100466.15
2022-10-23T01:56:32.688Z,100470.39
2022-10-23T02:22:29.417Z,100478.80
2022-10-23T02:44:23.003Z,100489.30
2022-10-23T03:06:07.803Z,100490.89
2022-10-23T03:27:51.356Z,100492.30
2022-10-23T03:49:34.727Z,100496.71
2022-10-23T04:11:21.313Z,100496.23
2022-10-23T04:33:04.674Z,100476.48
2022-10-23T04:54:48.134Z,100485.83
2022-10-23T05:16:50.214Z,100506.29
2022-10-23T05:38:35.432Z,100517.14
2022-10-23T06:00:26.312Z,100521.80
2022-10-23T06:22:17.734Z,100515.86
2022-10-23T06:44:08.543Z,100537.64
2022-10-23T07:06:01.720Z,100558.55
2022-10-23T07:27:45.690Z,100550.71
2022-10-23T07:49:29.423Z,100549.02
2022-10-23T08:11:14.500Z,100547.79
2022-10-23T08:33:05.063Z,100565.36
2022-10-23T08:55:04.756Z,100566.23
2022-10-23T09:16:59.396Z,100574.45
2022-10-23T09:38:49.475Z,100561.92
2022-10-23T10:00:32.516Z,100555.95
2022-10-23T10:22:28.564Z,100535.92
2022-10-23T10:44:50.923Z,100521.58
2022-10-23T11:06:37.645Z,100492.17
2022-10-23T11:28:30.941Z,100468.35
2022-10-23T11:50:24.651Z,100456.19
2022-10-23T12:12:28.034Z,100433.30
2022-10-23T12:34:26.087Z,100397.23
2022-10-23T12:56:13.832Z,100361.52
2022-10-23T13:18:06.436Z,100352.47
2022-10-23T13:40:00.913Z,100328.42
2022-10-23T14:24:11.455Z,100316.63
2022-10-23T14:45:58.074Z,100311.20
2022-10-23T15:07:43.823Z,100293.56
2022-10-23T15:29:29.502Z,100283.30
2022-10-23T15:51:15.222Z,100274.07
2022-10-23T16:26:11.984Z,100294.75
2022-10-23T16:47:57.699Z,100302.59
2022-10-23T17:26:14.010Z,100278.83
2022-10-23T17:47:59.733Z,100277.58
2022-10-23T18:09:45.686Z,100251.95
2022-10-23T18:31:31.803Z,100231.02
2022-10-23T18:53:17.606Z,100224.00
2022-10-23T19:15:03.340Z,100211.83
2022-10-23T19:36:49.742Z,100178.63
2022-10-23T19:58:35.833Z,100171.84
2022-10-23T20:20:21.549Z,100158.17
2022-10-23T20:42:08.515Z,100130.70
2022-10-23T21:03:56.318Z,100117.65
2022-10-23T21:25:42.971Z,100112.63
2022-10-23T21:47:28.933Z,100089.73
2022-10-23T22:09:18.964Z,100065.89
2022-10-23T22:31:04.950Z,100039.04
2022-10-23T22:52:50.748Z,100017.65
2022-10-23T23:14:36.691Z,100028.46
2022-10-23T23:36:24.998Z,100037.47
2022-10-23T23:58:11.064Z,100038.39
